Time,TemperatureF,DewpointF,PressureIn,WindDirection,WindDirectionDegrees,WindSpeedMPH,WindSpeedGustMPH,Humidity,HourlyPrecipIn,Conditions,Clouds,dailyrainin,SolarRadiationWatts/m^2,SoftwareType,DateUTC
2013-06-17 00:02:00,75.8,65.7,29.95,SSW,197,4.0,6.0,71,0.00,,,0.00,0.00,VWS V14.01,2013-06-17 04:02:00,
2013-06-17 00:07:00,75.6,65.5,29.95,SSW,206,6.0,7.0,71,0.00,,,0.00,0.00,VWS V14.01,2013-06-17 04:07:00,
2013-06-17 00:12:00,75.6,65.1,29.95,South,172,4.0,4.0,70,0.00,,,0.00,0.00,VWS V14.01,2013-06-17 04:12:00,
2013-06-17 00:17:00,75.4,64.9,29.95,SSW,193,0.0,6.0,70,0.00,,,0.00,0.00,VWS V14.01,2013-06-17 04:17:00,
2013-06-17 00:22:00,75.4,64.9,29.95,SSW,203,4.0,7.0,70,0.00,,,0.00,0.00,VWS V14.01,2013-06-17 04:22:00,
2013-06-17 00:27:00,75.4,64.9,29.95,SSW,203,3.0,5.0,70,0.00,,,0.00,0.00,VWS V14.01,2013-06-17 04:27:00,
2013-06-17 00:32:00,75.4,64.9,29.95,South,191,0.0,3.0,70,0.00,,,0.00,0.00,VWS V14.01,2013-06-17 04:32:00,
2013-06-17 00:37:00,75.4,64.9,29.95,South,186,0.0,4.0,70,0.00,,,0.00,0.00,VWS V14.01,2013-06-17 04:37:00,
2013-06-17 00:42:00,75.3,64.8,29.95,SW,219,0.0,2.0,70,0.00,,,0.00,0.00,VWS V14.01,2013-06-17 04:42:00,
2013-06-17 00:47:00,75.3,64.8,29.95,SW,228,0.0,4.0,70,0.00,,,0.00,0.00,VWS V14.01,2013-06-17 04:47:00,
2013-06-17 00:52:00,75.3,64.8,29.95,SSW,207,2.0,6.0,70,0.00,,,0.00,0.00,VWS V14.01,2013-06-17 04:52:00,
2013-06-17 00:57:00,75.3,64.8,29.95,WSW,238,3.0,5.0,70,0.00,,,0.00,0.00,VWS V14.01,2013-06-17 04:57:00,
2013-06-17 01:02:00,75.1,65.1,29.95,SW,233,0.0,5.0,71,0.00,,,0.00,0.00,VWS V14.01,2013-06-17 05:02:00,
2013-06-17 01:07:00,75.1,65.1,29.95,West,261,4.0,10.0,71,0.00,,,0.00,0.00,VWS V14.01,2013-06-17 05:07:00,
2013-06-17 01:12:00,75.1,65.1,29.95,South,191,9.0,12.0,71,0.00,,,0.00,0.00,VWS V14.01,2013-06-17 05:12:00,
2013-06-17 01:17:00,74.9,64.9,29.95,SSW,210,5.0,8.0,71,0.00,,,0.00,0.00,VWS V14.01,2013-06-17 05:17:00,
2013-06-17 01:22:00,74.9,64.9,29.95,WSW,243,1.0,1.0,71,0.00,,,0.00,0.00,VWS V14.01,2013-06-17 05:22:00,
2013-06-17 01:27:00,74.7,64.7,29.95,SW,223,2.0,4.0,71,0.00,,,0.00,0.00,VWS V14.01,2013-06-17 05:27:00,
2013-06-17 01:32:00,74.7,65.1,29.95,South,172,5.0,5.0,72,0.00,,,0.00,0.00,VWS V14.01,2013-06-17 05:32:00,
2013-06-17 01:37:00,74.6,65.0,29.95,SW,233,2.0,6.0,72,0.00,,,0.00,0.00,VWS V14.01,2013-06-17 05:37:00,
2013-06-17 01:42:00,74.4,64.8,29.95,SSW,198,7.0,7.0,72,0.00,,,0.00,0.00,VWS V14.01,2013-06-17 05:42:00,
2013-06-17 01:47:00,74.4,64.8,29.95,South,189,3.0,4.0,72,0.00,,,0.00,0.00,VWS V14.01,2013-06-17 05:47:00,
2013-06-17 01:52:00,74.2,64.6,29.95,SSE,162,4.0,6.0,72,0.00,,,0.00,0.00,VWS V14.01,2013-06-17 05:52:00,
2013-06-17 01:57:00,74.2,64.6,29.95,South,184,0.0,4.0,72,0.00,,,0.00,0.00,VWS V14.01,2013-06-17 05:57:00,
2013-06-17 02:02:00,74.0,64.4,29.95,SSW,210,1.0,2.0,72,0.00,,,0.00,0.00,VWS V14.01,2013-06-17 06:02:00,
2013-06-17 02:07:00,74.0,64.4,29.95,SSW,206,0.0,3.0,72,0.00,,,0.00,0.00,VWS V14.01,2013-06-17 06:07:00,
2013-06-17 02:12:00,73.9,64.3,29.95,West,265,2.0,4.0,72,0.00,,,0.00,0.00,VWS V14.01,2013-06-17 06:12:00,
2013-06-17 02:17:00,73.9,64.3,29.95,South,187,3.0,5.0,72,0.00,,,0.00,0.00,VWS V14.01,2013-06-17 06:17:00,
2013-06-17 02:22:00,73.9,64.3,29.95,SSW,200,4.0,4.0,72,0.00,,,0.00,0.00,VWS V14.01,2013-06-17 06:22:00,
2013-06-17 02:27:00,73.9,64.3,29.95,SW,214,5.0,6.0,72,0.00,,,0.00,0.00,VWS V14.01,2013-06-17 06:27:00,
2013-06-17 02:32:00,73.9,64.3,29.94,SSW,210,5.0,9.0,72,0.00,,,0.00,0.00,VWS V14.01,2013-06-17 06:32:00,
2013-06-17 02:37:00,73.7,64.1,29.94,WSW,256,3.0,4.0,72,0.00,,,0.00,0.00,VWS V14.01,2013-06-17 06:37:00,
2013-06-17 02:42:00,73.7,64.1,29.94,SSW,212,0.0,6.0,72,0.00,,,0.00,0.00,VWS V14.01,2013-06-17 06:42:00,
2013-06-17 02:47:00,73.7,64.5,29.94,SSW,212,0.0,3.0,73,0.00,,,0.00,0.00,VWS V14.01,2013-06-17 06:47:00,
2013-06-17 02:52:00,73.7,64.1,29.94,SW,219,2.0,9.0,72,0.00,,,0.00,0.00,VWS V14.01,2013-06-17 06:52:00,
2013-06-17 02:57:00,73.7,64.1,29.94,WSW,240,3.0,7.0,72,0.00,,,0.00,0.00,VWS V14.01,2013-06-17 06:57:00,
2013-06-17 03:02:00,73.5,64.3,29.94,WSW,254,0.0,1.0,73,0.00,,,0.00,0.00,VWS V14.01,2013-06-17 07:02:00,
2013-06-17 03:07:00,73.5,63.9,29.94,WSW,239,0.0,2.0,72,0.00,,,0.00,0.00,VWS V14.01,2013-06-17 07:07:00,
2013-06-17 03:12:00,73.5,63.9,29.94,SSW,213,5.0,5.0,72,0.00,,,0.00,0.00,VWS V14.01,2013-06-17 07:12:00,
2013-06-17 03:17:00,73.5,63.9,29.94,SW,236,1.0,3.0,72,0.00,,,0.00,0.00,VWS V14.01,2013-06-17 07:17:00,
2013-06-17 03:22:00,73.5,64.3,29.94,SW,227,0.0,0.0,73,0.00,,,0.00,0.00,VWS V14.01,2013-06-17 07:22:00,
2013-06-17 03:27:00,73.5,63.9,29.94,SW,228,3.0,5.0,72,0.00,,,0.00,0.00,VWS V14.01,2013-06-17 07:27:00,
2013-06-17 03:32:00,73.3,64.1,29.94,SSW,200,3.0,3.0,73,0.00,,,0.00,0.00,VWS V14.01,2013-06-17 07:32:00,
2013-06-17 03:37:00,73.3,64.1,29.94,SSW,200,4.0,4.0,73,0.00,,,0.00,0.00,VWS V14.01,2013-06-17 07:37:00,
2013-06-17 03:42:00,73.3,64.1,29.94,SW,223,4.0,5.0,73,0.00,,,0.00,0.00,VWS V14.01,2013-06-17 07:42:00,
2013-06-17 03:47:00,73.3,64.1,29.94,SW,224,0.0,3.0,73,0.00,,,0.00,0.00,VWS V14.01,2013-06-17 07:47:00,
2013-06-17 03:52:00,73.3,64.1,29.94,South,170,5.0,7.0,73,0.00,,,0.00,0.00,VWS V14.01,2013-06-17 07:52:00,
2013-06-17 03:57:00,73.2,64.0,29.94,WSW,238,1.0,4.0,73,0.00,,,0.00,0.00,VWS V14.01,2013-06-17 07:57:00,
2013-06-17 04:02:00,73.2,64.0,29.94,SSW,211,2.0,4.0,73,0.00,,,0.00,0.00,VWS V14.01,2013-06-17 08:02:00,
2013-06-17 04:07:00,73.2,64.0,29.94,SSW,211,0.0,3.0,73,0.00,,,0.00,0.00,VWS V14.01,2013-06-17 08:07:00,
2013-06-17 04:12:00,73.2,64.0,29.94,SSW,211,0.0,0.0,73,0.00,,,0.00,0.00,VWS V14.01,2013-06-17 08:12:00,
2013-06-17 04:17:00,73.2,64.0,29.94,SW,226,5.0,5.0,73,0.00,,,0.00,0.00,VWS V14.01,2013-06-17 08:17:00,
2013-06-17 04:22:00,73.2,64.0,29.94,South,191,5.0,6.0,73,0.00,,,0.00,0.00,VWS V14.01,2013-06-17 08:22:00,
2013-06-17 04:27:00,73.2,63.6,29.94,South,188,0.0,0.0,72,0.00,,,0.00,0.00,VWS V14.01,2013-06-17 08:27:00,
2013-06-17 04:32:00,73.2,63.6,29.94,SSW,204,0.0,0.0,72,0.00,,,0.00,0.00,VWS V14.01,2013-06-17 08:32:00,
2013-06-17 04:37:00,73.2,63.6,29.94,South,182,2.0,4.0,72,0.00,,,0.00,0.00,VWS V14.01,2013-06-17 08:37:00,
2013-06-17 04:42:00,73.2,63.6,29.94,SSW,193,2.0,2.0,72,0.00,,,0.00,0.00,VWS V14.01,2013-06-17 08:42:00,
2013-06-17 04:47:00,73.2,63.6,29.94,SW,227,2.0,3.0,72,0.00,,,0.00,0.00,VWS V14.01,2013-06-17 08:47:00,
2013-06-17 04:52:00,73.0,63.5,29.94,SW,227,0.0,1.0,72,0.00,,,0.00,0.00,VWS V14.01,2013-06-17 08:52:00,
2013-06-17 04:57:00,73.0,63.5,29.94,WSW,244,3.0,5.0,72,0.00,,,0.00,0.00,VWS V14.01,2013-06-17 08:57:00,
2013-06-17 05:02:00,73.0,63.5,29.94,SSW,198,3.0,3.0,72,0.00,,,0.00,0.00,VWS V14.01,2013-06-17 09:02:00,
2013-06-17 05:07:00,73.0,63.8,29.94,SSW,198,3.0,4.0,73,0.00,,,0.00,0.00,VWS V14.01,2013-06-17 09:07:00,
2013-06-17 05:12:00,72.8,63.7,29.94,SW,229,2.0,6.0,73,0.00,,,0.00,0.00,VWS V14.01,2013-06-17 09:12:00,
2013-06-17 05:17:00,72.8,63.7,29.94,South,179,0.0,0.0,73,0.00,,,0.00,0.00,VWS V14.01,2013-06-17 09:17:00,
2013-06-17 05:22:00,72.8,63.7,29.94,SSW,210,1.0,1.0,73,0.00,,,0.00,0.00,VWS V14.01,2013-06-17 09:22:00,
2013-06-17 05:27:00,72.8,63.7,29.94,SSW,195,9.0,9.0,73,0.00,,,0.00,0.00,VWS V14.01,2013-06-17 09:27:00,
2013-06-17 05:32:00,72.8,63.7,29.94,SSW,197,3.0,3.0,73,0.00,,,0.00,0.00,VWS V14.01,2013-06-17 09:32:00,
2013-06-17 05:37:00,72.8,63.7,29.94,South,172,0.0,0.0,73,0.00,,,0.00,0.00,VWS V14.01,2013-06-17 09:37:00,
2013-06-17 05:42:00,72.7,63.5,29.94,SSW,205,2.0,3.0,73,0.00,,,0.00,0.00,VWS V14.01,2013-06-17 09:42:00,
2013-06-17 05:47:00,72.7,63.5,29.95,SSW,205,0.0,0.0,73,0.00,,,0.00,0.00,VWS V14.01,2013-06-17 09:47:00,
2013-06-17 05:52:00,72.7,63.5,29.95,SW,227,3.0,4.0,73,0.00,,,0.00,0.00,VWS V14.01,2013-06-17 09:52:00,
2013-06-17 05:57:00,72.5,63.4,29.95,SSW,200,4.0,4.0,73,0.00,,,0.00,0.00,VWS V14.01,2013-06-17 09:57:00,
2013-06-17 06:02:00,72.5,63.4,29.94,South,191,1.0,1.0,73,0.00,,,0.00,0.00,VWS V14.01,2013-06-17 10:02:00,
2013-06-17 06:07:00,72.5,63.4,29.94,WSW,250,7.0,7.0,73,0.00,,,0.00,0.00,VWS V14.01,2013-06-17 10:07:00,
2013-06-17 06:12:00,72.5,63.4,29.94,South,185,2.0,5.0,73,0.00,,,0.00,5.00,VWS V14.01,2013-06-17 10:12:00,
2013-06-17 06:17:00,72.5,63.4,29.94,SSW,195,0.0,4.0,73,0.00,,,0.00,9.00,VWS V14.01,2013-06-17 10:17:00,
2013-06-17 06:22:00,72.5,63.4,29.94,SSW,196,2.0,4.0,73,0.00,,,0.00,12.00,VWS V14.01,2013-06-17 10:22:00,
2013-06-17 06:27:00,72.3,63.2,29.94,South,179,2.0,4.0,73,0.00,,,0.00,14.00,VWS V14.01,2013-06-17 10:27:00,
2013-06-17 06:32:00,72.5,63.4,29.94,SW,232,0.0,0.0,73,0.00,,,0.00,19.00,VWS V14.01,2013-06-17 10:32:00,
2013-06-17 06:36:00,72.5,63.4,29.94,SSW,207,0.0,0.0,73,0.00,,,0.00,23.00,VWS V14.01,2013-06-17 10:36:00,
2013-06-17 06:41:00,72.5,63.0,29.94,SSW,193,5.0,5.0,72,0.00,,,0.00,28.00,VWS V14.01,2013-06-17 10:41:00,
2013-06-17 06:46:00,72.5,63.0,29.95,WSW,248,0.0,0.0,72,0.00,,,0.00,35.00,VWS V14.01,2013-06-17 10:46:00,
2013-06-17 06:51:00,72.5,63.0,29.95,SW,234,1.0,3.0,72,0.00,,,0.00,42.00,VWS V14.01,2013-06-17 10:51:00,
2013-06-17 06:56:00,72.7,63.2,29.95,SW,234,0.0,0.0,72,0.00,,,0.00,46.00,VWS V14.01,2013-06-17 10:56:00,
2013-06-17 07:01:00,72.7,63.2,29.94,SW,217,2.0,5.0,72,0.00,,,0.00,56.00,VWS V14.01,2013-06-17 11:01:00,
2013-06-17 07:06:00,72.7,63.2,29.94,South,187,2.0,2.0,72,0.00,,,0.00,69.00,VWS V14.01,2013-06-17 11:06:00,
2013-06-17 07:11:00,72.8,63.3,29.94,South,188,0.0,1.0,72,0.00,,,0.00,70.00,VWS V14.01,2013-06-17 11:11:00,
2013-06-17 07:16:00,73.0,63.5,29.94,SW,231,4.0,4.0,72,0.00,,,0.00,72.00,VWS V14.01,2013-06-17 11:16:00,
2013-06-17 07:21:00,73.0,63.0,29.94,South,178,2.0,2.0,71,0.00,,,0.00,77.00,VWS V14.01,2013-06-17 11:21:00,
2013-06-17 07:26:00,73.0,63.0,29.94,South,178,1.0,1.0,71,0.00,,,0.00,79.00,VWS V14.01,2013-06-17 11:26:00,
2013-06-17 07:31:00,73.2,63.2,29.94,South,178,3.0,4.0,71,0.00,,,0.00,88.00,VWS V14.01,2013-06-17 11:31:00,
2013-06-17 07:36:00,73.2,63.2,29.94,SW,233,3.0,3.0,71,0.00,,,0.00,90.00,VWS V14.01,2013-06-17 11:36:00,
2013-06-17 07:41:00,73.3,62.9,29.94,SW,231,0.0,0.0,70,0.00,,,0.00,114.00,VWS V14.01,2013-06-17 11:41:00,
2013-06-17 07:46:00,73.5,63.1,29.94,SW,231,1.0,2.0,70,0.00,,,0.00,128.00,VWS V14.01,2013-06-17 11:46:00,
2013-06-17 07:51:00,73.7,63.7,29.94,WSW,253,0.0,1.0,71,0.00,,,0.00,137.00,VWS V14.01,2013-06-17 11:51:00,
2013-06-17 07:56:00,73.9,63.5,29.94,WSW,248,0.0,0.0,70,0.00,,,0.00,153.00,VWS V14.01,2013-06-17 11:56:00,
2013-06-17 08:01:00,74.2,63.8,29.94,South,176,2.0,4.0,70,0.00,,,0.00,167.00,VWS V14.01,2013-06-17 12:01:00,
2013-06-17 08:06:00,74.6,63.8,29.94,SSW,196,6.0,6.0,69,0.00,,,0.00,181.00,VWS V14.01,2013-06-17 12:06:00,
2013-06-17 08:11:00,74.9,63.6,29.94,SSW,193,3.0,4.0,68,0.00,,,0.00,171.00,VWS V14.01,2013-06-17 12:11:00,
2013-06-17 08:16:00,75.1,63.8,29.94,SW,236,0.0,0.0,68,0.00,,,0.00,171.00,VWS V14.01,2013-06-17 12:16:00,
2013-06-17 08:21:00,75.3,64.0,29.94,WSW,239,0.0,0.0,68,0.00,,,0.00,183.00,VWS V14.01,2013-06-17 12:21:00,
2013-06-17 08:26:00,75.4,63.7,29.94,WSW,245,0.0,1.0,67,0.00,,,0.00,202.00,VWS V14.01,2013-06-17 12:26:00,
2013-06-17 08:31:00,75.4,63.7,29.94,WSW,254,0.0,0.0,67,0.00,,,0.00,207.00,VWS V14.01,2013-06-17 12:31:00,
2013-06-17 08:36:00,75.6,63.9,29.94,West,272,6.0,6.0,67,0.00,,,0.00,206.00,VWS V14.01,2013-06-17 12:36:00,
2013-06-17 08:41:00,75.6,63.5,29.94,SW,225,4.0,5.0,66,0.00,,,0.00,199.00,VWS V14.01,2013-06-17 12:41:00,
2013-06-17 08:46:00,75.8,63.6,29.95,West,273,2.0,6.0,66,0.00,,,0.00,178.00,VWS V14.01,2013-06-17 12:46:00,
2013-06-17 08:51:00,75.8,63.6,29.95,West,276,4.0,7.0,66,0.00,,,0.00,190.00,VWS V14.01,2013-06-17 12:51:00,
2013-06-17 08:56:00,76.0,63.8,29.95,West,269,0.0,5.0,66,0.00,,,0.00,167.00,VWS V14.01,2013-06-17 12:56:00,
2013-06-17 09:01:00,76.0,63.8,29.95,WNW,283,6.0,6.0,66,0.00,,,0.00,163.00,VWS V14.01,2013-06-17 13:01:00,
2013-06-17 09:06:00,76.1,63.9,29.95,West,280,3.0,4.0,66,0.00,,,0.00,220.00,VWS V14.01,2013-06-17 13:06:00,
2013-06-17 09:11:00,76.3,64.6,29.95,West,279,0.0,1.0,67,0.00,,,0.00,315.00,VWS V14.01,2013-06-17 13:11:00,
2013-06-17 09:16:00,76.7,64.5,29.94,WSW,257,4.0,4.0,66,0.00,,,0.00,357.00,VWS V14.01,2013-06-17 13:16:00,
2013-06-17 09:21:00,76.8,64.2,29.94,WSW,247,10.0,10.0,65,0.00,,,0.00,376.00,VWS V14.01,2013-06-17 13:21:00,
2013-06-17 09:26:00,77.2,64.5,29.94,West,270,0.0,5.0,65,0.00,,,0.00,341.00,VWS V14.01,2013-06-17 13:26:00,
2013-06-17 09:31:00,77.6,64.9,29.94,West,269,0.0,1.0,65,0.00,,,0.00,320.00,VWS V14.01,2013-06-17 13:31:00,
2013-06-17 09:36:00,77.6,64.5,29.94,WNW,282,7.0,7.0,64,0.00,,,0.00,269.00,VWS V14.01,2013-06-17 13:36:00,
2013-06-17 09:41:00,77.6,64.5,29.94,West,268,0.0,5.0,64,0.00,,,0.00,287.00,VWS V14.01,2013-06-17 13:41:00,
2013-06-17 09:46:00,77.6,64.9,29.95,West,262,5.0,10.0,65,0.00,,,0.00,413.00,VWS V14.01,2013-06-17 13:46:00,
2013-06-17 09:51:00,77.6,64.9,29.95,West,278,6.0,6.0,65,0.00,,,0.00,411.00,VWS V14.01,2013-06-17 13:51:00,
2013-06-17 09:56:00,77.9,65.2,29.95,WNW,289,3.0,5.0,65,0.00,,,0.00,325.00,VWS V14.01,2013-06-17 13:56:00,
2013-06-17 10:01:00,78.1,65.4,29.94,West,278,0.0,6.0,65,0.00,,,0.00,357.00,VWS V14.01,2013-06-17 14:01:00,
2013-06-17 10:06:00,78.3,65.6,29.94,West,263,0.0,3.0,65,0.00,,,0.00,457.00,VWS V14.01,2013-06-17 14:06:00,
2013-06-17 10:11:00,78.6,65.4,29.94,West,277,5.0,6.0,64,0.00,,,0.00,258.00,VWS V14.01,2013-06-17 14:11:00,
2013-06-17 10:16:00,78.8,65.6,29.94,WSW,252,4.0,6.0,64,0.00,,,0.00,541.00,VWS V14.01,2013-06-17 14:16:00,
2013-06-17 10:21:00,79.4,66.2,29.94,WNW,283,0.0,1.0,64,0.00,,,0.00,731.00,VWS V14.01,2013-06-17 14:21:00,
2013-06-17 10:26:00,80.1,66.4,29.94,SW,236,3.0,8.0,63,0.00,,,0.00,738.00,VWS V14.01,2013-06-17 14:26:00,
2013-06-17 10:31:00,80.7,66.0,29.93,SW,214,4.0,5.0,61,0.00,,,0.00,768.00,VWS V14.01,2013-06-17 14:31:00,
2013-06-17 10:36:00,81.2,66.0,29.93,WNW,290,6.0,11.0,60,0.00,,,0.00,663.00,VWS V14.01,2013-06-17 14:36:00,
2013-06-17 10:41:00,81.6,66.9,29.93,South,182,0.0,4.0,61,0.00,,,0.00,775.00,VWS V14.01,2013-06-17 14:41:00,
2013-06-17 10:46:00,82.2,66.0,29.92,SW,228,3.0,4.0,58,0.00,,,0.00,779.00,VWS V14.01,2013-06-17 14:46:00,
2013-06-17 10:51:00,82.2,66.5,29.92,WSW,250,4.0,5.0,59,0.00,,,0.00,744.00,VWS V14.01,2013-06-17 14:51:00,
2013-06-17 10:56:00,82.0,66.3,29.92,West,278,4.0,7.0,59,0.00,,,0.00,475.00,VWS V14.01,2013-06-17 14:56:00,
2013-06-17 11:01:00,81.8,66.6,29.93,WSW,256,0.0,4.0,60,0.00,,,0.00,390.00,VWS V14.01,2013-06-17 15:01:00,
2013-06-17 11:06:00,81.8,66.6,29.93,SW,226,0.0,5.0,60,0.00,,,0.00,434.00,VWS V14.01,2013-06-17 15:06:00,
2013-06-17 11:11:00,81.6,66.4,29.93,West,271,6.0,6.0,60,0.00,,,0.00,469.00,VWS V14.01,2013-06-17 15:11:00,
2013-06-17 11:16:00,81.6,66.9,29.93,West,274,2.0,7.0,61,0.00,,,0.00,431.00,VWS V14.01,2013-06-17 15:16:00,
2013-06-17 11:21:00,81.6,66.4,29.93,West,270,6.0,6.0,60,0.00,,,0.00,417.00,VWS V14.01,2013-06-17 15:21:00,
2013-06-17 11:26:00,81.8,67.1,29.93,West,276,0.0,5.0,61,0.00,,,0.00,967.00,VWS V14.01,2013-06-17 15:26:00,
2013-06-17 11:31:00,82.6,66.3,29.93,WSW,245,0.0,0.0,58,0.00,,,0.00,828.00,VWS V14.01,2013-06-17 15:31:00,
2013-06-17 11:36:00,83.2,67.4,29.93,WSW,252,6.0,7.0,59,0.00,,,0.00,696.00,VWS V14.01,2013-06-17 15:36:00,
2013-06-17 11:41:00,83.4,67.1,29.93,SW,222,6.0,9.0,58,0.00,,,0.00,666.00,VWS V14.01,2013-06-17 15:41:00,
2013-06-17 11:46:00,83.2,66.9,29.93,West,266,5.0,6.0,58,0.00,,,0.00,629.00,VWS V14.01,2013-06-17 15:46:00,
2013-06-17 11:51:00,83.2,66.9,29.93,South,184,1.0,4.0,58,0.00,,,0.00,519.00,VWS V14.01,2013-06-17 15:51:00,
2013-06-17 11:56:00,83.4,67.1,29.93,WNW,288,5.0,6.0,58,0.00,,,0.00,476.00,VWS V14.01,2013-06-17 15:56:00,
2013-06-17 12:02:00,83.4,67.6,29.92,West,265,5.0,6.0,59,0.00,,,0.00,468.00,VWS V14.01,2013-06-17 16:02:00,
2013-06-17 12:07:00,83.6,67.3,29.92,SSW,192,0.0,5.0,58,0.00,,,0.00,504.00,VWS V14.01,2013-06-17 16:07:00,
2013-06-17 12:12:00,83.8,68.4,29.92,WSW,250,5.0,5.0,60,0.00,,,0.00,561.00,VWS V14.01,2013-06-17 16:12:00,
2013-06-17 12:17:00,83.6,67.8,29.92,South,191,6.0,6.0,59,0.00,,,0.00,457.00,VWS V14.01,2013-06-17 16:17:00,
2013-06-17 12:22:00,83.8,68.0,29.92,West,274,4.0,4.0,59,0.00,,,0.00,606.00,VWS V14.01,2013-06-17 16:22:00,
2013-06-17 12:27:00,84.1,68.2,29.92,SSW,211,0.0,2.0,59,0.00,,,0.00,411.00,VWS V14.01,2013-06-17 16:27:00,
2013-06-17 12:32:00,84.0,67.7,29.92,SW,226,2.0,3.0,58,0.00,,,0.00,318.00,VWS V14.01,2013-06-17 16:32:00,
2013-06-17 12:37:00,83.4,67.6,29.92,West,269,5.0,5.0,59,0.00,,,0.00,264.00,VWS V14.01,2013-06-17 16:37:00,
2013-06-17 12:42:00,83.0,67.7,29.92,WSW,245,3.0,7.0,60,0.00,,,0.00,260.00,VWS V14.01,2013-06-17 16:42:00,
2013-06-17 12:47:00,82.4,67.6,29.92,WSW,252,4.0,5.0,61,0.00,,,0.00,283.00,VWS V14.01,2013-06-17 16:47:00,
2013-06-17 12:52:00,82.2,67.9,29.92,WSW,252,0.0,0.0,62,0.00,,,0.00,288.00,VWS V14.01,2013-06-17 16:52:00,
2013-06-17 12:57:00,82.0,67.7,29.92,West,264,0.0,5.0,62,0.00,,,0.00,232.00,VWS V14.01,2013-06-17 16:57:00,
2013-06-17 13:02:00,81.6,68.2,29.92,SW,236,0.0,0.0,64,0.00,,,0.00,209.00,VWS V14.01,2013-06-17 17:02:00,
2013-06-17 13:07:00,81.6,68.2,29.92,WSW,254,0.0,0.0,64,0.00,,,0.00,193.00,VWS V14.01,2013-06-17 17:07:00,
2013-06-17 13:12:00,81.6,68.2,29.92,West,268,0.0,0.0,64,0.00,,,0.00,139.00,VWS V14.01,2013-06-17 17:12:00,
2013-06-17 13:17:00,81.4,68.1,29.92,West,260,0.0,4.0,64,0.00,,,0.00,125.00,VWS V14.01,2013-06-17 17:17:00,
2013-06-17 13:22:00,81.2,69.2,29.92,WSW,248,3.0,6.0,67,0.00,,,0.00,156.00,VWS V14.01,2013-06-17 17:22:00,
2013-06-17 13:27:00,80.7,68.7,29.92,WSW,248,1.0,1.0,67,0.00,,,0.00,155.00,VWS V14.01,2013-06-17 17:27:00,
2013-06-17 13:32:00,80.5,69.0,29.93,WSW,250,0.0,3.0,68,0.00,,,0.00,185.00,VWS V14.01,2013-06-17 17:32:00,
2013-06-17 13:37:00,80.5,69.4,29.93,WSW,250,3.0,4.0,69,0.00,,,0.00,179.00,VWS V14.01,2013-06-17 17:37:00,
2013-06-17 13:42:00,80.3,68.8,29.93,WSW,252,0.0,1.0,68,0.00,,,0.00,188.00,VWS V14.01,2013-06-17 17:42:00,
2013-06-17 13:47:00,80.3,68.8,29.92,WSW,252,0.0,0.0,68,0.00,,,0.00,207.00,VWS V14.01,2013-06-17 17:47:00,
2013-06-17 13:52:00,80.5,69.0,29.92,WSW,255,0.0,4.0,68,0.00,,,0.00,236.00,VWS V14.01,2013-06-17 17:52:00,
2013-06-17 13:57:00,80.5,69.4,29.92,West,263,0.0,3.0,69,0.00,,,0.00,294.00,VWS V14.01,2013-06-17 17:57:00,
2013-06-17 14:02:00,80.7,69.2,29.92,West,259,4.0,7.0,68,0.00,,,0.00,404.00,VWS V14.01,2013-06-17 18:02:00,
2013-06-17 14:07:00,80.9,68.9,29.92,WSW,249,5.0,7.0,67,0.00,,,0.00,469.00,VWS V14.01,2013-06-17 18:07:00,
2013-06-17 14:12:00,81.2,69.2,29.92,SSW,201,0.0,1.0,67,0.00,,,0.00,490.00,VWS V14.01,2013-06-17 18:12:00,
2013-06-17 14:17:00,81.6,69.6,29.92,West,261,0.0,5.0,67,0.00,,,0.00,540.00,VWS V14.01,2013-06-17 18:17:00,
2013-06-17 14:22:00,82.2,70.2,29.92,WSW,255,0.0,0.0,67,0.00,,,0.00,548.00,VWS V14.01,2013-06-17 18:22:00,
2013-06-17 14:27:00,82.8,69.8,29.92,WSW,246,10.0,10.0,65,0.00,,,0.00,577.00,VWS V14.01,2013-06-17 18:27:00,
2013-06-17 14:32:00,83.0,70.0,29.91,West,274,0.0,3.0,65,0.00,,,0.00,554.00,VWS V14.01,2013-06-17 18:32:00,
2013-06-17 14:37:00,83.2,69.8,29.91,SW,236,1.0,5.0,64,0.00,,,0.00,480.00,VWS V14.01,2013-06-17 18:37:00,
2013-06-17 14:42:00,83.2,69.8,29.91,West,279,4.0,4.0,64,0.00,,,0.00,473.00,VWS V14.01,2013-06-17 18:42:00,
2013-06-17 14:47:00,83.2,70.2,29.90,WSW,251,0.0,0.0,65,0.00,,,0.00,519.00,VWS V14.01,2013-06-17 18:47:00,
2013-06-17 14:52:00,83.6,70.1,29.90,NNW,332,0.0,0.0,64,0.00,,,0.00,731.00,VWS V14.01,2013-06-17 18:52:00,
2013-06-17 14:57:00,84.0,69.6,29.90,WSW,252,0.0,0.0,62,0.00,,,0.00,519.00,VWS V14.01,2013-06-17 18:57:00,
2013-06-17 15:02:00,84.3,69.4,29.89,West,267,0.0,0.0,61,0.00,,,0.00,939.00,VWS V14.01,2013-06-17 19:02:00,
2013-06-17 15:07:00,84.7,69.3,29.89,WSW,255,5.0,8.0,60,0.00,,,0.00,865.00,VWS V14.01,2013-06-17 19:07:00,
2013-06-17 15:12:00,85.3,69.8,29.89,West,268,4.0,8.0,60,0.00,,,0.00,854.00,VWS V14.01,2013-06-17 19:12:00,
2013-06-17 15:17:00,85.7,69.2,29.89,West,262,6.0,11.0,58,0.00,,,0.00,863.00,VWS V14.01,2013-06-17 19:17:00,
2013-06-17 15:22:00,86.1,70.1,29.89,West,272,0.0,0.0,59,0.00,,,0.00,728.00,VWS V14.01,2013-06-17 19:22:00,
2013-06-17 15:27:00,86.7,70.2,29.89,WSW,239,5.0,6.0,58,0.00,,,0.00,649.00,VWS V14.01,2013-06-17 19:27:00,
2013-06-17 15:32:00,87.2,69.6,29.89,WSW,238,4.0,11.0,56,0.00,,,0.00,893.00,VWS V14.01,2013-06-17 19:32:00,
2013-06-17 15:37:00,87.4,69.3,29.89,West,264,0.0,0.0,55,0.00,,,0.00,863.00,VWS V14.01,2013-06-17 19:37:00,
2013-06-17 15:42:00,88.0,69.3,29.89,ESE,120,0.0,0.0,54,0.00,,,0.00,775.00,VWS V14.01,2013-06-17 19:42:00,
2013-06-17 15:47:00,88.2,67.8,29.88,SSW,205,9.0,9.0,51,0.00,,,0.00,803.00,VWS V14.01,2013-06-17 19:47:00,
2013-06-17 15:52:00,87.6,68.9,29.88,WSW,257,1.0,4.0,54,0.00,,,0.00,756.00,VWS V14.01,2013-06-17 19:52:00,
2013-06-17 15:57:00,87.6,68.9,29.88,WSW,256,5.0,9.0,54,0.00,,,0.00,795.00,VWS V14.01,2013-06-17 19:57:00,
2013-06-17 16:02:00,87.4,68.7,29.87,West,262,8.0,10.0,54,0.00,,,0.00,800.00,VWS V14.01,2013-06-17 20:02:00,
2013-06-17 16:07:00,87.0,68.4,29.87,SSW,193,7.0,10.0,54,0.00,,,0.00,220.00,VWS V14.01,2013-06-17 20:07:00,
2013-06-17 16:12:00,86.5,68.4,29.87,SSW,196,4.0,6.0,55,0.00,,,0.00,234.00,VWS V14.01,2013-06-17 20:12:00,
2013-06-17 16:17:00,86.5,68.4,29.87,SSW,206,7.0,7.0,55,0.00,,,0.00,287.00,VWS V14.01,2013-06-17 20:17:00,
2013-06-17 16:22:00,86.7,68.1,29.87,WNW,284,2.0,5.0,54,0.00,,,0.00,731.00,VWS V14.01,2013-06-17 20:22:00,
2013-06-17 16:27:00,87.2,68.5,29.87,West,272,6.0,6.0,54,0.00,,,0.00,696.00,VWS V14.01,2013-06-17 20:27:00,
2013-06-17 16:32:00,87.4,68.2,29.86,SW,224,0.0,1.0,53,0.00,,,0.00,671.00,VWS V14.01,2013-06-17 20:32:00,
2013-06-17 16:37:00,88.0,68.7,29.86,West,266,10.0,13.0,53,0.00,,,0.00,645.00,VWS V14.01,2013-06-17 20:37:00,
2013-06-17 16:42:00,88.0,67.1,29.86,WSW,242,4.0,11.0,50,0.00,,,0.00,656.00,VWS V14.01,2013-06-17 20:42:00,
2013-06-17 16:47:00,88.2,67.8,29.86,West,279,0.0,4.0,51,0.00,,,0.00,223.00,VWS V14.01,2013-06-17 20:47:00,
2013-06-17 16:52:00,88.0,68.2,29.86,West,274,2.0,4.0,52,0.00,,,0.00,329.00,VWS V14.01,2013-06-17 20:52:00,
2013-06-17 16:57:00,88.0,68.7,29.86,WSW,243,0.0,1.0,53,0.00,,,0.00,707.00,VWS V14.01,2013-06-17 20:57:00,
2013-06-17 17:02:00,88.2,67.8,29.86,West,271,0.0,0.0,51,0.00,,,0.00,680.00,VWS V14.01,2013-06-17 21:02:00,
2013-06-17 17:07:00,88.2,67.8,29.86,WSW,251,9.0,9.0,51,0.00,,,0.00,202.00,VWS V14.01,2013-06-17 21:07:00,
2013-06-17 17:12:00,87.8,68.6,29.86,West,276,0.0,0.0,53,0.00,,,0.00,211.00,VWS V14.01,2013-06-17 21:12:00,
2013-06-17 17:17:00,87.6,67.8,29.85,SSE,162,3.0,3.0,52,0.00,,,0.00,200.00,VWS V14.01,2013-06-17 21:17:00,
2013-06-17 17:22:00,87.4,67.6,29.85,WSW,238,1.0,6.0,52,0.00,,,0.00,200.00,VWS V14.01,2013-06-17 21:22:00,
2013-06-17 17:27:00,87.4,67.6,29.85,SW,236,2.0,3.0,52,0.00,,,0.00,250.00,VWS V14.01,2013-06-17 21:27:00,
2013-06-17 17:32:00,87.6,67.8,29.85,West,264,4.0,5.0,52,0.00,,,0.00,202.00,VWS V14.01,2013-06-17 21:32:00,
2013-06-17 17:37:00,87.4,67.6,29.85,SW,220,0.0,0.0,52,0.00,,,0.00,204.00,VWS V14.01,2013-06-17 21:37:00,
2013-06-17 17:42:00,87.6,67.2,29.85,SW,232,0.0,0.0,51,0.00,,,0.00,406.00,VWS V14.01,2013-06-17 21:42:00,
2013-06-17 17:47:00,87.6,67.2,29.84,WSW,243,2.0,4.0,51,0.00,,,0.00,410.00,VWS V14.01,2013-06-17 21:47:00,
2013-06-17 17:52:00,88.2,67.2,29.84,South,178,0.0,1.0,50,0.00,,,0.00,403.00,VWS V14.01,2013-06-17 21:52:00,
2013-06-17 17:57:00,88.4,66.8,29.84,South,191,1.0,4.0,49,0.00,,,0.00,229.00,VWS V14.01,2013-06-17 21:57:00,
2013-06-17 18:02:00,88.4,67.4,29.84,SW,214,5.0,5.0,50,0.00,,,0.00,142.00,VWS V14.01,2013-06-17 22:02:00,
2013-06-17 18:07:00,88.2,67.2,29.84,WSW,251,0.0,0.0,50,0.00,,,0.00,334.00,VWS V14.01,2013-06-17 22:07:00,
2013-06-17 18:12:00,87.8,67.4,29.84,WSW,251,0.0,0.0,51,0.00,,,0.00,316.00,VWS V14.01,2013-06-17 22:12:00,
2013-06-17 18:17:00,87.8,66.9,29.84,WSW,251,0.0,0.0,50,0.00,,,0.00,325.00,VWS V14.01,2013-06-17 22:17:00,
2013-06-17 18:22:00,88.0,67.6,29.84,SW,231,5.0,6.0,51,0.00,,,0.00,151.00,VWS V14.01,2013-06-17 22:22:00,
2013-06-17 18:26:00,87.8,66.9,29.84,SW,230,0.0,0.0,50,0.00,,,0.00,130.00,VWS V14.01,2013-06-17 22:26:00,
2013-06-17 18:31:00,87.4,66.5,29.84,SSW,195,4.0,4.0,50,0.00,,,0.00,121.00,VWS V14.01,2013-06-17 22:31:00,
2013-06-17 18:36:00,87.0,66.7,29.84,SW,217,3.0,3.0,51,0.00,,,0.00,123.00,VWS V14.01,2013-06-17 22:36:00,
2013-06-17 18:41:00,86.5,66.8,29.84,WSW,252,5.0,5.0,52,0.00,,,0.00,135.00,VWS V14.01,2013-06-17 22:41:00,
2013-06-17 18:46:00,86.1,66.4,29.84,SSW,212,3.0,3.0,52,0.00,,,0.00,130.00,VWS V14.01,2013-06-17 22:46:00,
2013-06-17 18:51:00,85.9,66.2,29.84,WSW,256,1.0,1.0,52,0.00,,,0.00,130.00,VWS V14.01,2013-06-17 22:51:00,
2013-06-17 18:56:00,85.9,66.2,29.84,SSW,196,1.0,2.0,52,0.00,,,0.00,135.00,VWS V14.01,2013-06-17 22:56:00,
2013-06-17 19:01:00,85.7,66.1,29.84,South,180,2.0,4.0,52,0.00,,,0.00,118.00,VWS V14.01,2013-06-17 23:01:00,
2013-06-17 19:06:00,85.7,66.6,29.84,SSW,200,0.0,0.0,53,0.00,,,0.00,111.00,VWS V14.01,2013-06-17 23:06:00,
2013-06-17 19:11:00,85.5,66.4,29.84,South,181,0.0,0.0,53,0.00,,,0.00,97.00,VWS V14.01,2013-06-17 23:11:00,
2013-06-17 19:16:00,85.3,66.8,29.84,SW,214,1.0,1.0,54,0.00,,,0.00,83.00,VWS V14.01,2013-06-17 23:16:00,
2013-06-17 19:21:00,85.1,66.6,29.84,South,184,5.0,5.0,54,0.00,,,0.00,60.00,VWS V14.01,2013-06-17 23:21:00,
2013-06-17 19:26:00,84.9,66.9,29.84,SW,221,3.0,3.0,55,0.00,,,0.00,60.00,VWS V14.01,2013-06-17 23:26:00,
2013-06-17 19:31:00,84.7,67.3,29.84,SW,214,7.0,7.0,56,0.00,,,0.00,60.00,VWS V14.01,2013-06-17 23:31:00,
2013-06-17 19:36:00,84.5,67.1,29.84,SSE,157,2.0,5.0,56,0.00,,,0.00,60.00,VWS V14.01,2013-06-17 23:36:00,
2013-06-17 19:41:00,84.3,66.9,29.84,SSW,201,1.0,1.0,56,0.00,,,0.00,49.00,VWS V14.01,2013-06-17 23:41:00,
2013-06-17 19:46:00,84.1,67.2,29.84,SW,220,1.0,7.0,57,0.00,,,0.00,42.00,VWS V14.01,2013-06-17 23:46:00,
2013-06-17 19:51:00,84.0,67.1,29.84,SSW,194,4.0,5.0,57,0.00,,,0.00,37.00,VWS V14.01,2013-06-17 23:51:00,
2013-06-17 19:56:00,83.8,67.5,29.84,SW,214,7.0,7.0,58,0.00,,,0.00,25.00,VWS V14.01,2013-06-17 23:56:00,
2013-06-17 20:01:00,83.6,67.3,29.85,SW,227,4.0,5.0,58,0.00,,,0.00,23.00,VWS V14.01,2013-06-18 00:01:00,
2013-06-17 20:06:00,83.4,67.1,29.85,South,178,4.0,4.0,58,0.00,,,0.00,23.00,VWS V14.01,2013-06-18 00:06:00,
2013-06-17 20:11:00,83.2,67.4,29.85,South,179,0.0,1.0,59,0.00,,,0.00,21.00,VWS V14.01,2013-06-18 00:11:00,
2013-06-17 20:16:00,83.0,67.2,29.85,South,179,0.0,1.0,59,0.00,,,0.00,16.00,VWS V14.01,2013-06-18 00:16:00,
2013-06-17 20:21:00,82.8,67.5,29.85,SSW,196,7.0,7.0,60,0.00,,,0.00,9.00,VWS V14.01,2013-06-18 00:21:00,
2013-06-17 20:26:00,82.6,67.3,29.85,SSW,195,0.0,5.0,60,0.00,,,0.00,5.00,VWS V14.01,2013-06-18 00:26:00,
2013-06-17 20:31:00,82.6,67.8,29.85,SSW,195,9.0,9.0,61,0.00,,,0.00,0.00,VWS V14.01,2013-06-18 00:31:00,
2013-06-17 20:36:00,82.4,68.1,29.85,SSW,210,0.0,4.0,62,0.00,,,0.00,0.00,VWS V14.01,2013-06-18 00:36:00,
2013-06-17 20:41:00,82.2,68.4,29.85,SSW,209,0.0,0.0,63,0.00,,,0.00,0.00,VWS V14.01,2013-06-18 00:41:00,
2013-06-17 20:46:00,82.0,68.2,29.86,SSW,205,0.0,0.0,63,0.00,,,0.00,0.00,VWS V14.01,2013-06-18 00:46:00,
2013-06-17 20:51:00,81.8,68.4,29.86,SSW,205,4.0,6.0,64,0.00,,,0.00,0.00,VWS V14.01,2013-06-18 00:51:00,
2013-06-17 20:56:00,81.6,68.2,29.86,SSW,202,4.0,5.0,64,0.00,,,0.00,0.00,VWS V14.01,2013-06-18 00:56:00,
2013-06-17 21:01:00,81.4,68.1,29.86,South,186,0.0,3.0,64,0.00,,,0.00,0.00,VWS V14.01,2013-06-18 01:01:00,
2013-06-17 21:06:00,81.2,68.3,29.86,SSW,195,3.0,5.0,65,0.00,,,0.00,0.00,VWS V14.01,2013-06-18 01:06:00,
2013-06-17 21:11:00,81.1,68.2,29.86,South,172,4.0,4.0,65,0.00,,,0.00,0.00,VWS V14.01,2013-06-18 01:11:00,
2013-06-17 21:16:00,80.9,68.5,29.86,South,179,4.0,6.0,66,0.00,,,0.00,0.00,VWS V14.01,2013-06-18 01:16:00,
2013-06-17 21:21:00,80.7,68.3,29.86,SSW,210,6.0,6.0,66,0.00,,,0.00,0.00,VWS V14.01,2013-06-18 01:21:00,
2013-06-17 21:26:00,80.7,68.7,29.86,SW,220,4.0,5.0,67,0.00,,,0.00,0.00,VWS V14.01,2013-06-18 01:26:00,
2013-06-17 21:31:00,80.5,68.5,29.87,South,183,2.0,6.0,67,0.00,,,0.00,0.00,VWS V14.01,2013-06-18 01:31:00,
2013-06-17 21:36:00,80.5,68.5,29.87,SW,218,5.0,6.0,67,0.00,,,0.00,0.00,VWS V14.01,2013-06-18 01:36:00,
2013-06-17 21:41:00,80.3,68.8,29.87,SSW,206,8.0,10.0,68,0.00,,,0.00,0.00,VWS V14.01,2013-06-18 01:41:00,
2013-06-17 21:46:00,80.1,68.6,29.88,WSW,242,10.0,11.0,68,0.00,,,0.00,0.00,VWS V14.01,2013-06-18 01:46:00,
2013-06-17 21:51:00,79.9,68.8,29.88,South,186,0.0,11.0,69,0.00,,,0.00,0.00,VWS V14.01,2013-06-18 01:51:00,
2013-06-17 21:56:00,79.6,68.5,29.88,South,185,8.0,8.0,69,0.00,,,0.00,0.00,VWS V14.01,2013-06-18 01:56:00,
2013-06-17 22:01:00,79.4,68.8,29.89,SSW,204,5.0,11.0,70,0.00,,,0.00,0.00,VWS V14.01,2013-06-18 02:01:00,
2013-06-17 22:06:00,79.4,68.8,29.89,SSW,205,3.0,3.0,70,0.00,,,0.00,0.00,VWS V14.01,2013-06-18 02:06:00,
2013-06-17 22:11:00,79.0,69.2,29.89,South,188,6.0,12.0,72,0.00,,,0.00,0.00,VWS V14.01,2013-06-18 02:11:00,
2013-06-17 22:16:00,78.8,69.0,29.89,South,180,5.0,10.0,72,0.00,,,0.00,0.00,VWS V14.01,2013-06-18 02:16:00,
2013-06-17 22:21:00,78.6,69.2,29.89,SSW,207,1.0,4.0,73,0.00,,,0.00,0.00,VWS V14.01,2013-06-18 02:21:00,
2013-06-17 22:26:00,78.5,69.1,29.89,SSE,160,4.0,4.0,73,0.00,,,0.00,0.00,VWS V14.01,2013-06-18 02:26:00,
2013-06-17 22:31:00,78.5,69.5,29.89,SSW,212,4.0,7.0,74,0.00,,,0.00,0.00,VWS V14.01,2013-06-18 02:31:00,
2013-06-17 22:36:00,78.3,69.3,29.89,SSW,196,4.0,6.0,74,0.00,,,0.00,0.00,VWS V14.01,2013-06-18 02:36:00,
2013-06-17 22:41:00,78.1,69.5,29.89,South,172,10.0,10.0,75,0.00,,,0.00,0.00,VWS V14.01,2013-06-18 02:41:00,
2013-06-17 22:46:00,78.1,69.5,29.89,SW,223,3.0,3.0,75,0.00,,,0.00,0.00,VWS V14.01,2013-06-18 02:46:00,
2013-06-17 22:51:00,77.9,69.7,29.89,South,179,2.0,4.0,76,0.00,,,0.00,0.00,VWS V14.01,2013-06-18 02:51:00,
2013-06-17 22:56:00,77.9,69.7,29.89,SW,214,0.0,3.0,76,0.00,,,0.00,0.00,VWS V14.01,2013-06-18 02:56:00,
2013-06-17 23:01:00,77.9,69.7,29.89,WSW,243,4.0,7.0,76,0.00,,,0.00,0.00,VWS V14.01,2013-06-18 03:01:00,
2013-06-17 23:06:00,77.9,70.1,29.89,SSE,147,4.0,9.0,77,0.00,,,0.00,0.00,VWS V14.01,2013-06-18 03:06:00,
2013-06-17 23:11:00,77.9,70.1,29.89,SW,234,3.0,7.0,77,0.00,,,0.00,0.00,VWS V14.01,2013-06-18 03:11:00,
2013-06-17 23:16:00,77.7,70.3,29.89,South,172,10.0,10.0,78,0.00,,,0.00,0.00,VWS V14.01,2013-06-18 03:16:00,
2013-06-17 23:21:00,77.7,70.7,29.89,SSW,207,2.0,5.0,79,0.00,,,0.00,0.00,VWS V14.01,2013-06-18 03:21:00,
2013-06-17 23:26:00,77.6,70.6,29.89,SSW,212,3.0,6.0,79,0.00,,,0.00,0.00,VWS V14.01,2013-06-18 03:26:00,
2013-06-17 23:31:00,77.4,70.4,29.89,SW,219,4.0,11.0,79,0.00,,,0.00,0.00,VWS V14.01,2013-06-18 03:31:00,
2013-06-17 23:36:00,77.4,70.4,29.89,SSW,211,3.0,10.0,79,0.00,,,0.00,0.00,VWS V14.01,2013-06-18 03:36:00,
2013-06-17 23:41:00,77.2,70.2,29.89,SW,225,1.0,4.0,79,0.00,,,0.00,0.00,VWS V14.01,2013-06-18 03:41:00,
2013-06-17 23:46:00,77.2,70.6,29.89,SSW,208,4.0,9.0,80,0.00,,,0.00,0.00,VWS V14.01,2013-06-18 03:46:00,
2013-06-17 23:51:00,77.0,70.4,29.89,SW,216,10.0,10.0,80,0.00,,,0.00,0.00,VWS V14.01,2013-06-18 03:51:00,
2013-06-17 23:56:00,77.0,70.4,29.89,South,174,4.0,5.0,80,0.00,,,0.00,0.00,VWS V14.01,2013-06-18 03:56:00,